New Ulm, Texas
Current Conditions -  °F | °C
As of 8:15 AM on Thursday 29 Jan 2015 (Local Time) from K66R Reporting Station
Moderate Fog Moderate Fog  
Wind Chill: 56°   Ceiling: 300
Heat Index: 56°   Visibility: 0mi
Dew Point: 56°   Wind: 0mph
Humidity: 100%   Direction: NA
Pressure: 30.21"   Gusts: NA
Location:  29.89°N, 96.49°W
Report Text: K66R 291415Z AUTO 00000KT M1/4SM FG OVC003 14/14 A3021 RMK AO2 T01360136
Loading
Personal Weather Stations






























Interactive Weather Map New forecast layout! Learn more

10-Day Weather Forecast

Advertisements
Track Severe Weather on mobile